createdAt,value
2022-12-13T00:02:01.985Z,101357.09
2022-12-13T00:04:30.376Z,101359.78
2022-12-13T00:06:58.659Z,101354.53
2022-12-13T00:09:27.152Z,101347.34
2022-12-13T00:11:55.492Z,101341.44
2022-12-13T00:14:23.819Z,101347.72
2022-12-13T00:16:52.376Z,101343.72
2022-12-13T00:19:22.040Z,101339.47
2022-12-13T00:21:50.479Z,101336.13
2022-12-13T00:24:18.944Z,101342.34
2022-12-13T00:26:47.198Z,101331.91
2022-12-13T00:29:15.522Z,101339.66
2022-12-13T00:31:58.570Z,101330.31
2022-12-13T00:34:29.531Z,101334.88
2022-12-13T00:36:59.790Z,101338.50
2022-12-13T00:39:28.293Z,101336.94
2022-12-13T00:41:56.646Z,101335.34
2022-12-13T00:44:25.271Z,101331.59
2022-12-13T00:46:53.518Z,101333.94
2022-12-13T00:49:22.012Z,101349.91
2022-12-13T00:51:51.665Z,101341.03
2022-12-13T00:54:19.898Z,101345.75
2022-12-13T00:56:48.251Z,101346.94
2022-12-13T00:59:16.837Z,101345.63
2022-12-13T01:01:46.023Z,101340.09
2022-12-13T01:04:15.227Z,101342.16
2022-12-13T01:06:45.869Z,101353.66
2022-12-13T01:09:20.766Z,101351.56
2022-12-13T01:11:50.161Z,101337.75
2022-12-13T01:14:19.256Z,101348.69
2022-12-13T01:16:47.633Z,101341.91
2022-12-13T01:19:16.366Z,101339.94
2022-12-13T01:21:44.599Z,101341.50
2022-12-13T01:24:12.988Z,101347.19
2022-12-13T01:26:42.774Z,101349.53
2022-12-13T01:29:11.567Z,101352.66
2022-12-13T01:31:41.628Z,101353.81
2022-12-13T01:34:11.417Z,101354.59
2022-12-13T01:36:41.099Z,101347.50
2022-12-13T01:39:14.775Z,101353.41
2022-12-13T01:41:48.160Z,101355.72
2022-12-13T01:45:04.778Z,101350.19
2022-12-13T01:47:40.859Z,101348.28
2022-12-13T01:50:13.937Z,101339.53
2022-12-13T01:52:44.178Z,101346.53
2022-12-13T01:55:13.695Z,101354.22
2022-12-13T01:57:46.107Z,101349.97
2022-12-13T02:00:16.429Z,101343.97
2022-12-13T02:02:45.587Z,101343.53
2022-12-13T02:05:23.141Z,101344.09
2022-12-13T02:07:52.435Z,101342.03
2022-12-13T02:10:21.246Z,101349.44
2022-12-13T02:12:51.594Z,101350.25
2022-12-13T02:15:22.031Z,101344.25
2022-12-13T02:18:07.959Z,101342.78
2022-12-13T02:20:58.923Z,101344.47
2022-12-13T02:24:13.323Z,101340.22
2022-12-13T02:27:09.867Z,101334.22
2022-12-13T02:30:26.893Z,101324.69
2022-12-13T02:33:21.358Z,101316.88
2022-12-13T02:36:00.691Z,101306.25
2022-12-13T02:38:35.289Z,101313.94
2022-12-13T02:41:14.877Z,101310.44
2022-12-13T02:43:51.704Z,101311.38
2022-12-13T02:46:34.082Z,101305.34
2022-12-13T02:49:04.839Z,101309.69
2022-12-13T02:51:34.372Z,101304.47
2022-12-13T02:54:02.731Z,101313.81
2022-12-13T02:56:32.951Z,101312.81
2022-12-13T02:59:05.046Z,101320.47
2022-12-13T03:01:50.704Z,101314.25
2022-12-13T03:04:33.978Z,101313.38
2022-12-13T03:07:11.745Z,101309.81
2022-12-13T03:09:50.626Z,101313.16
2022-12-13T03:12:49.281Z,101310.47
2022-12-13T03:15:23.117Z,101312.16
2022-12-13T03:17:59.858Z,101317.41
2022-12-13T03:20:30.836Z,101308.94
2022-12-13T03:22:59.458Z,101312.38
2022-12-13T03:25:32.967Z,101313.16
2022-12-13T03:28:02.904Z,101314.91
2022-12-13T03:30:32.354Z,101315.16
2022-12-13T03:33:03.819Z,101317.72
2022-12-13T03:35:44.845Z,101311.81
2022-12-13T03:38:22.576Z,101309.94
2022-12-13T03:40:54.216Z,101309.81
2022-12-13T03:43:23.345Z,101307.16
2022-12-13T03:45:52.616Z,101307.81
2022-12-13T03:48:23.015Z,101300.72
2022-12-13T03:50:55.225Z,101304.28
2022-12-13T03:53:33.187Z,101300.06
2022-12-13T03:56:03.690Z,101293.81
2022-12-13T03:58:36.077Z,101302.28
2022-12-13T04:01:07.996Z,101297.06
2022-12-13T04:03:36.607Z,101302.16
2022-12-13T04:06:07.463Z,101299.81
2022-12-13T04:08:36.880Z,101299.06
2022-12-13T04:11:26.800Z,101296.63
2022-12-13T04:13:57.116Z,101290.50
2022-12-13T04:16:25.942Z,101285.84
2022-12-13T04:18:54.220Z,101294.63
2022-12-13T04:21:24.760Z,101290.50
2022-12-13T04:23:53.024Z,101285.59
2022-12-13T04:26:21.436Z,101284.81
2022-12-13T04:28:54.516Z,101288.94
2022-12-13T04:31:23.854Z,101287.72
2022-12-13T04:33:52.307Z,101292.06
2022-12-13T04:36:31.838Z,101294.50
2022-12-13T04:39:03.157Z,101280.63
2022-12-13T04:41:36.828Z,101288.31
2022-12-13T04:44:06.847Z,101286.50
2022-12-13T04:46:55.088Z,101284.63
2022-12-13T04:49:29.766Z,101285.38
2022-12-13T04:52:01.163Z,101275.16
2022-12-13T04:54:35.698Z,101279.41
2022-12-13T04:57:07.659Z,101273.41
2022-12-13T04:59:36.111Z,101265.63
2022-12-13T05:02:05.922Z,101270.72
2022-12-13T05:04:34.531Z,101266.41
2022-12-13T05:07:02.988Z,101273.41
2022-12-13T05:09:32.795Z,101269.19
2022-12-13T05:12:02.051Z,101269.28
2022-12-13T05:14:31.147Z,101264.31
2022-12-13T05:16:59.885Z,101252.09
2022-12-13T05:19:30.454Z,101259.19
2022-12-13T05:22:00.995Z,101254.28
2022-12-13T05:24:32.435Z,101255.28
2022-12-13T05:27:01.201Z,101255.16
2022-12-13T05:29:29.851Z,101260.28
2022-12-13T05:31:58.346Z,101254.16
2022-12-13T05:34:26.853Z,101249.06
2022-12-13T05:36:55.147Z,101263.50
2022-12-13T05:39:27.972Z,101254.06
2022-12-13T05:42:01.787Z,101252.28
2022-12-13T05:44:32.233Z,101248.72
2022-12-13T05:47:01.953Z,101253.16
2022-12-13T05:49:30.953Z,101253.06
2022-12-13T05:51:59.355Z,101247.16
2022-12-13T05:54:27.739Z,101250.53
2022-12-13T05:56:56.681Z,101236.75
2022-12-13T05:59:26.408Z,101241.84
2022-12-13T06:01:54.852Z,101251.19
2022-12-13T06:04:23.604Z,101247.72
2022-12-13T06:06:52.633Z,101257.19
2022-12-13T06:09:21.369Z,101254.63
2022-12-13T06:11:50.310Z,101250.41
2022-12-13T06:14:21.559Z,101253.84
2022-12-13T06:16:53.189Z,101253.06
2022-12-13T06:19:21.989Z,101256.63
2022-12-13T06:21:50.349Z,101251.53
2022-12-13T06:24:21.121Z,101251.59
2022-12-13T06:26:51.219Z,101249.97
2022-12-13T06:29:23.985Z,101252.53
2022-12-13T06:32:01.834Z,101255.06
2022-12-13T06:34:33.804Z,101246.28
2022-12-13T06:37:02.410Z,101243.84
2022-12-13T06:39:33.183Z,101245.63
2022-12-13T06:42:03.341Z,101254.41
2022-12-13T06:44:31.843Z,101252.91
2022-12-13T06:47:10.280Z,101259.91
2022-12-13T06:49:43.473Z,101270.25
2022-12-13T06:52:13.787Z,101261.78
2022-12-13T06:54:42.559Z,101258.47
2022-12-13T06:57:11.159Z,101260.47
2022-12-13T06:59:39.727Z,101265.66
2022-12-13T07:02:15.503Z,101258.00
2022-12-13T07:04:56.179Z,101263.09
2022-12-13T07:07:25.958Z,101268.03
2022-12-13T07:09:54.722Z,101260.16
2022-12-13T07:12:23.446Z,101256.47
2022-12-13T07:14:52.232Z,101254.47
2022-12-13T07:17:32.660Z,101251.16
2022-12-13T07:20:07.971Z,101252.91
2022-12-13T07:22:44.928Z,101256.28
2022-12-13T07:25:27.947Z,101255.97
2022-12-13T07:28:01.401Z,101260.06
2022-12-13T07:30:32.585Z,101254.06
2022-12-13T07:33:03.104Z,101264.19
2022-12-13T07:35:32.441Z,101257.28
2022-12-13T07:38:06.070Z,101264.94
2022-12-13T07:40:35.222Z,101269.19
2022-12-13T07:43:03.581Z,101264.84
2022-12-13T07:45:31.841Z,101262.50
2022-12-13T07:48:05.362Z,101271.84
2022-12-13T07:50:37.030Z,101275.09
2022-12-13T07:53:07.648Z,101279.41
2022-12-13T07:55:37.468Z,101280.94
2022-12-13T07:58:07.424Z,101274.41
2022-12-13T08:00:35.763Z,101282.41
2022-12-13T08:03:06.653Z,101291.81
2022-12-13T08:05:38.612Z,101287.72
2022-12-13T08:08:10.457Z,101284.41
2022-12-13T08:10:39.609Z,101289.81
2022-12-13T08:13:08.038Z,101294.25
2022-12-13T08:15:36.330Z,101297.69
2022-12-13T08:18:06.507Z,101303.81
2022-12-13T08:20:34.774Z,101299.69
2022-12-13T08:23:03.188Z,101300.69
2022-12-13T08:25:32.097Z,101302.56
2022-12-13T08:28:02.054Z,101293.34
2022-12-13T08:30:32.515Z,101294.47
2022-12-13T08:33:04.722Z,101293.88
2022-12-13T08:35:35.377Z,101292.44
2022-12-13T08:38:04.419Z,101299.53
2022-12-13T08:40:32.812Z,101301.53
2022-12-13T08:43:01.053Z,101306.84
2022-12-13T08:45:29.500Z,101306.38
2022-12-13T08:48:00.648Z,101306.78
2022-12-13T08:50:30.551Z,101311.47
2022-12-13T08:53:00.281Z,101310.97
2022-12-13T08:55:31.319Z,101322.63
2022-12-13T08:58:06.997Z,101323.94
2022-12-13T09:00:35.414Z,101318.47
2022-12-13T09:03:05.021Z,101316.41
2022-12-13T09:05:35.211Z,101325.50
2022-12-13T09:08:25.049Z,101324.31
2022-12-13T09:11:11.217Z,101322.28
2022-12-13T09:13:50.551Z,101316.00
2022-12-13T09:16:24.520Z,101320.63
2022-12-13T09:18:55.216Z,101321.03
2022-12-13T09:21:31.566Z,101328.22
2022-12-13T09:24:02.450Z,101320.38
2022-12-13T09:26:38.262Z,101320.16
2022-12-13T09:29:11.076Z,101318.00
2022-12-13T09:31:41.129Z,101326.84
2022-12-13T09:34:10.146Z,101326.66
2022-12-13T09:36:38.709Z,101330.19
2022-12-13T09:39:08.434Z,101335.13
2022-12-13T09:41:41.366Z,101328.94
2022-12-13T09:44:32.731Z,101316.88
2022-12-13T09:47:13.327Z,101321.13
2022-12-13T09:49:51.674Z,101317.06
2022-12-13T09:52:24.263Z,101314.59
2022-12-13T09:54:57.189Z,101312.16
2022-12-13T09:57:31.267Z,101310.84
2022-12-13T10:00:02.465Z,101305.78
2022-12-13T10:02:33.700Z,101303.50
2022-12-13T10:05:22.281Z,101304.59
2022-12-13T10:07:54.346Z,101299.75
2022-12-13T10:10:24.351Z,101303.47
2022-12-13T10:13:01.961Z,101293.50
2022-12-13T10:15:32.969Z,101288.63
2022-12-13T10:18:04.247Z,101283.88
2022-12-13T10:20:34.505Z,101281.53
2022-12-13T10:23:31.464Z,101285.25
2022-12-13T10:26:02.897Z,101282.06
2022-12-13T10:28:34.723Z,101273.75
2022-12-13T10:31:03.840Z,101277.56
2022-12-13T10:33:35.073Z,101273.50
2022-12-13T10:36:16.481Z,101269.34
2022-12-13T10:38:47.352Z,101265.25
2022-12-13T10:41:36.710Z,101269.72
2022-12-13T10:44:25.939Z,101260.41
2022-12-13T10:47:05.797Z,101261.47
2022-12-13T10:49:42.447Z,101244.38
2022-12-13T10:52:30.640Z,101252.97
2022-12-13T10:55:04.596Z,101250.38
2022-12-13T10:57:54.580Z,101247.81
2022-12-13T11:00:37.747Z,101246.94
2022-12-13T11:03:07.221Z,101245.44
2022-12-13T11:05:37.646Z,101242.16
2022-12-13T11:08:19.333Z,101236.41
2022-12-13T11:10:57.708Z,101229.69
2022-12-13T11:13:36.899Z,101216.03
2022-12-13T11:16:13.041Z,101223.13
2022-12-13T11:18:41.588Z,101223.28
2022-12-13T11:21:11.229Z,101219.22
2022-12-13T11:23:44.949Z,101208.47
2022-12-13T11:26:24.262Z,101204.47
2022-12-13T11:29:16.188Z,101203.75
2022-12-13T11:31:55.436Z,101207.50
2022-12-13T11:34:35.256Z,101192.22
2022-12-13T11:37:19.222Z,101199.31
2022-12-13T11:39:51.781Z,101195.31
2022-12-13T11:42:27.263Z,101191.38
2022-12-13T11:45:07.976Z,101185.88
2022-12-13T11:47:44.944Z,101185.41
2022-12-13T11:50:32.678Z,101179.78
2022-12-13T11:53:24.371Z,101177.53
2022-12-13T11:55:58.793Z,101178.84
2022-12-13T12:01:32.406Z,101169.28
2022-12-13T12:04:18.178Z,101172.25
2022-12-13T12:06:53.143Z,101176.03
2022-12-13T12:09:25.421Z,101177.22
2022-12-13T12:12:02.198Z,101174.97
2022-12-13T12:14:42.196Z,101170.16
2022-12-13T12:17:15.773Z,101173.84
2022-12-13T12:19:47.923Z,101154.25
2022-12-13T12:22:32.271Z,101172.69
2022-12-13T12:25:22.753Z,101170.25
2022-12-13T12:28:00.414Z,101161.06
2022-12-13T12:30:41.419Z,101160.41
2022-12-13T12:33:25.093Z,101160.72
2022-12-13T12:36:15.437Z,101155.81
2022-12-13T12:39:13.297Z,101154.31
2022-12-13T12:42:00.263Z,101155.38
2022-12-13T12:44:40.864Z,101156.47
2022-12-13T12:47:56.476Z,101153.25
2022-12-13T12:50:43.051Z,101151.63
2022-12-13T12:53:31.709Z,101155.97
2022-12-13T12:56:18.285Z,101147.44
2022-12-13T12:58:53.271Z,101143.25
2022-12-13T13:01:43.341Z,101140.94
2022-12-13T13:04:22.627Z,101137.00
2022-12-13T13:07:01.921Z,101131.88
2022-12-13T13:09:32.489Z,101134.34
2022-12-13T13:12:29.680Z,101131.28
2022-12-13T13:14:53.594Z,101133.16
2022-12-13T13:17:47.745Z,101135.09
2022-12-13T13:20:26.941Z,101139.84
2022-12-13T13:23:38.871Z,101137.56
2022-12-13T13:26:16.416Z,101137.47
2022-12-13T13:28:43.568Z,101141.06
2022-12-13T13:31:12.834Z,101139.84
2022-12-13T13:33:48.118Z,101134.75
2022-12-13T13:36:47.940Z,101141.81
2022-12-13T13:39:38.811Z,101142.59
2022-12-13T13:42:18.548Z,101140.22
2022-12-13T13:45:23.654Z,101142.00
2022-12-13T13:48:20.833Z,101145.72
2022-12-13T13:51:31.425Z,101144.09
2022-12-13T13:54:37.221Z,101140.09
2022-12-13T14:01:12.402Z,101131.47
2022-12-13T14:04:38.115Z,101135.53
2022-12-13T14:07:52.364Z,101129.28
2022-12-13T14:10:36.591Z,101138.75
2022-12-13T14:13:59.127Z,101141.34
2022-12-13T14:17:19.122Z,101156.19
2022-12-13T14:20:32.406Z,101147.94
2022-12-13T14:23:08.134Z,101144.78
2022-12-13T14:26:18.348Z,101148.19
2022-12-13T14:28:51.060Z,101145.00
2022-12-13T14:31:23.651Z,101154.84
2022-12-13T14:33:54.755Z,101149.16
2022-12-13T14:36:32.267Z,101153.00
2022-12-13T14:39:02.981Z,101147.53
2022-12-13T14:41:32.698Z,101146.28
2022-12-13T14:44:16.189Z,101145.00
2022-12-13T14:46:57.218Z,101142.75
2022-12-13T14:49:28.554Z,101144.09
2022-12-13T14:52:01.640Z,101140.06
2022-12-13T14:54:39.756Z,101150.88
2022-12-13T14:57:19.180Z,101142.66
2022-12-13T14:59:50.394Z,101139.13
2022-12-13T15:02:30.881Z,101137.19
2022-12-13T15:05:02.044Z,101124.50
2022-12-13T15:07:36.274Z,101120.63
2022-12-13T15:10:19.133Z,101117.50
2022-12-13T15:12:49.859Z,101112.56
2022-12-13T15:15:26.348Z,101112.06
2022-12-13T15:18:15.108Z,101112.66
2022-12-13T15:20:43.509Z,101097.59
2022-12-13T15:23:20.597Z,101102.34
2022-12-13T15:25:56.944Z,101108.81
2022-12-13T15:28:29.447Z,101103.50
2022-12-13T15:31:00.343Z,101103.97
2022-12-13T15:33:35.258Z,101105.47
2022-12-13T15:36:11.335Z,101105.22
2022-12-13T15:38:43.190Z,101106.50
2022-12-13T15:41:19.301Z,101099.31
2022-12-13T15:43:52.553Z,101095.44
2022-12-13T15:46:27.131Z,101097.75
2022-12-13T15:48:57.694Z,101110.41
2022-12-13T15:51:29.243Z,101106.59
2022-12-13T15:54:21.194Z,101101.19
2022-12-13T15:57:13.634Z,101106.88
2022-12-13T15:59:46.054Z,101106.41
2022-12-13T16:02:20.133Z,101106.09
2022-12-13T16:04:49.042Z,101098.13
2022-12-13T16:07:26.219Z,101103.16
2022-12-13T16:09:55.750Z,101100.31
2022-12-13T16:12:29.770Z,101098.47
2022-12-13T16:15:20.559Z,101099.69
2022-12-13T16:18:07.888Z,101101.88
2022-12-13T16:20:36.642Z,101111.09
2022-12-13T16:23:08.869Z,101106.66
2022-12-13T16:25:37.900Z,101107.28
2022-12-13T16:28:06.583Z,101095.88
2022-12-13T16:31:04.095Z,101093.91
2022-12-13T16:33:32.897Z,101091.94
2022-12-13T16:36:01.351Z,101092.66
2022-12-13T16:38:30.105Z,101087.25
2022-12-13T16:41:09.304Z,101091.50
2022-12-13T16:43:45.737Z,101088.22
2022-12-13T16:47:15.220Z,101094.34
2022-12-13T16:49:18.824Z,101089.22
2022-12-13T16:51:48.834Z,101093.25
2022-12-13T16:54:19.998Z,101094.34
2022-12-13T16:56:48.937Z,101087.63
2022-12-13T16:59:20.744Z,101092.75
2022-12-13T17:01:51.505Z,101087.44
2022-12-13T17:04:22.923Z,101078.47
2022-12-13T17:06:54.488Z,101083.34
2022-12-13T17:09:25.342Z,101082.28
2022-12-13T17:11:53.739Z,101083.06
2022-12-13T17:14:23.301Z,101081.19
2022-12-13T17:16:53.239Z,101086.31
2022-12-13T17:19:22.312Z,101077.66
2022-12-13T17:21:50.633Z,101082.59
2022-12-13T17:24:18.974Z,101072.06
2022-12-13T17:26:54.549Z,101070.22
2022-12-13T17:29:24.697Z,101074.53
2022-12-13T17:31:54.587Z,101086.38
2022-12-13T17:34:22.885Z,101084.41
2022-12-13T17:36:51.206Z,101078.22
2022-12-13T17:39:19.992Z,101081.50
2022-12-13T17:41:54.875Z,101079.63
2022-12-13T17:44:25.161Z,101071.72
2022-12-13T17:46:55.819Z,101071.84
2022-12-13T17:49:25.553Z,101072.72
2022-12-13T17:51:54.795Z,101074.41
2022-12-13T17:54:24.706Z,101076.97
2022-12-13T17:56:53.612Z,101074.41
2022-12-13T17:59:22.359Z,101065.72
2022-12-13T18:01:50.926Z,101068.28
2022-12-13T18:04:21.337Z,101067.47
2022-12-13T18:06:51.524Z,101069.28
2022-12-13T18:09:20.280Z,101065.03
2022-12-13T18:11:48.672Z,101057.50
2022-12-13T18:14:17.388Z,101053.31
2022-12-13T18:16:45.815Z,101059.47
2022-12-13T18:19:15.336Z,101053.59
2022-12-13T18:21:45.039Z,101057.19
2022-12-13T18:24:13.632Z,101053.84
2022-12-13T18:26:42.563Z,101054.84
2022-12-13T18:29:11.000Z,101052.88
2022-12-13T18:31:39.802Z,101054.91
2022-12-13T18:34:09.329Z,101049.72
2022-12-13T18:36:39.666Z,101053.31
2022-12-13T18:39:09.467Z,101050.75
2022-12-13T18:41:37.936Z,101050.59
2022-12-13T18:44:09.088Z,101042.03
2022-12-13T18:46:44.724Z,101036.09
2022-12-13T18:49:14.466Z,101043.00
2022-12-13T18:51:42.790Z,101040.63
2022-12-13T18:54:12.477Z,101026.00
2022-12-13T18:56:41.055Z,101032.06
2022-12-13T18:59:11.001Z,101015.59
2022-12-13T19:01:39.413Z,101022.31
2022-12-13T19:04:07.733Z,101017.19
2022-12-13T19:06:36.037Z,101017.00
2022-12-13T19:09:04.546Z,101011.97
2022-12-13T19:11:34.334Z,101014.81
2022-12-13T19:14:02.601Z,101012.25
2022-12-13T19:16:31.087Z,101016.31
2022-12-13T19:18:59.693Z,101017.00
2022-12-13T19:21:28.510Z,101016.78
2022-12-13T19:23:58.815Z,101014.88
2022-12-13T19:26:29.311Z,101011.34
2022-12-13T19:29:00.181Z,101017.16
2022-12-13T19:31:32.074Z,101016.25
2022-12-13T19:34:01.868Z,101010.94
2022-12-13T19:36:31.049Z,101009.97
2022-12-13T19:38:59.800Z,101006.44
2022-12-13T19:41:28.376Z,101008.91
2022-12-13T19:43:58.185Z,101001.13
2022-12-13T19:46:27.223Z,100995.84
2022-12-13T19:48:55.569Z,101001.91
2022-12-13T19:51:24.059Z,100999.97
2022-12-13T19:53:52.773Z,100987.84
2022-12-13T19:56:23.240Z,100984.31
2022-12-13T19:58:52.307Z,100985.91
2022-12-13T20:01:22.349Z,100982.44
2022-12-13T20:03:51.456Z,100975.56
2022-12-13T20:06:22.526Z,100982.44
2022-12-13T20:08:51.723Z,100975.56
2022-12-13T20:11:23.015Z,100968.47
2022-12-13T20:13:54.743Z,100964.94
2022-12-13T20:16:26.860Z,100971.84
2022-12-13T20:18:56.796Z,100964.06
2022-12-13T20:21:25.862Z,100962.19
2022-12-13T20:23:54.417Z,100962.19
2022-12-13T20:26:25.613Z,100959.63
2022-12-13T20:28:54.461Z,100963.94
2022-12-13T20:31:27.241Z,100953.72
2022-12-13T20:33:57.038Z,100954.53
2022-12-13T20:36:28.678Z,100959.03
2022-12-13T20:38:59.706Z,100950.44
2022-12-13T20:41:31.000Z,100949.56
2022-12-13T20:44:01.673Z,100945.31
2022-12-13T20:46:32.043Z,100947.13
2022-12-13T20:49:03.216Z,100945.63
2022-12-13T20:51:33.891Z,100940.59
2022-12-13T20:54:02.481Z,100932.19
2022-12-13T20:56:35.046Z,100936.53
2022-12-13T20:59:04.381Z,100929.75
2022-12-13T21:01:37.838Z,100927.34
2022-12-13T21:04:08.840Z,100921.44
2022-12-13T21:06:40.675Z,100921.56
2022-12-13T21:09:10.908Z,100926.69
2022-12-13T21:11:41.576Z,100915.63
2022-12-13T21:14:20.860Z,100916.59
2022-12-13T21:16:54.342Z,100915.78
2022-12-13T21:19:25.666Z,100914.16
2022-12-13T21:21:55.225Z,100916.00
2022-12-13T21:24:26.799Z,100919.44
2022-12-13T21:26:56.405Z,100912.47
2022-12-13T21:29:25.344Z,100916.78
2022-12-13T21:31:55.417Z,100908.31
2022-12-13T21:34:24.477Z,100911.66
2022-12-13T21:36:54.621Z,100900.53
2022-12-13T21:39:28.108Z,100903.19
2022-12-13T21:41:56.879Z,100899.72
2022-12-13T21:44:25.381Z,100900.69
2022-12-13T21:47:12.265Z,100894.69
2022-12-13T21:49:41.086Z,100904.94
2022-12-13T21:52:09.422Z,100889.06
2022-12-13T21:54:37.986Z,100884.47
2022-12-13T21:57:23.579Z,100892.78
2022-12-13T21:59:51.896Z,100880.56
2022-12-13T22:02:21.621Z,100878.72
2022-12-13T22:04:52.429Z,100886.22
2022-12-13T22:07:23.897Z,100880.19
2022-12-13T22:09:52.542Z,100878.53
2022-12-13T22:12:23.998Z,100869.88
2022-12-13T22:14:56.391Z,100867.31
2022-12-13T22:17:35.118Z,100867.50
2022-12-13T22:20:05.917Z,100862.38
2022-12-13T22:22:34.504Z,100860.78
2022-12-13T22:25:02.800Z,100864.31
2022-12-13T22:27:31.106Z,100861.94
2022-12-13T22:29:59.661Z,100857.00
2022-12-13T22:32:32.357Z,100852.03
2022-12-13T22:35:00.996Z,100852.81
2022-12-13T22:37:30.212Z,100846.09
2022-12-13T22:39:58.624Z,100854.97
2022-12-13T22:42:27.332Z,100850.00
2022-12-13T22:44:56.303Z,100859.53
2022-12-13T22:47:24.658Z,100847.59
2022-12-13T22:49:54.295Z,100848.56
2022-12-13T22:52:22.862Z,100846.22
2022-12-13T22:54:51.146Z,100853.00
2022-12-13T22:57:19.397Z,100839.41
2022-12-13T22:59:47.648Z,100834.38
2022-12-13T23:02:16.796Z,100839.41
2022-12-13T23:04:45.179Z,100836.72
2022-12-13T23:07:15.745Z,100835.16
2022-12-13T23:09:44.238Z,100839.41
2022-12-13T23:12:31.013Z,100836.03
2022-12-13T23:14:59.238Z,100830.63
2022-12-13T23:17:27.574Z,100825.50
2022-12-13T23:19:55.864Z,100822.78
2022-12-13T23:22:27.326Z,100823.66
2022-12-13T23:24:55.629Z,100820.22
2022-12-13T23:27:25.627Z,100816.78
2022-12-13T23:29:53.871Z,100816.84
2022-12-13T23:32:22.212Z,100822.78
2022-12-13T23:34:50.537Z,100816.78
2022-12-13T23:37:18.800Z,100815.00
2022-12-13T23:39:48.501Z,100817.50
2022-12-13T23:42:16.827Z,100811.41
2022-12-13T23:44:45.059Z,100813.97
2022-12-13T23:47:13.468Z,100819.09
2022-12-13T23:49:42.586Z,100802.91
2022-12-13T23:52:10.788Z,100813.97
2022-12-13T23:54:39.015Z,100801.94
2022-12-13T23:57:08.654Z,100795.78
2022-12-13T23:59:36.953Z,100792.41
